Time;durP1;ratioP1;P1;durP2;ratioP2;P2;SDS_P1;SDS_P2;PMS_P1;PMS_P2;Temp;Humidity;BMP_temperature;BMP_pressure;BME280_temperature;BME280_humidity;BME280_pressure;Samples;Min_cycle;Max_cycle;Signal;HPM_P1;HPM_P2
2022/11/23 00:00:35;;;;;;;1.90;1.00;;;;;;;2.60;67.72;101493.72;5035114;28;20897;-72
2022/11/23 00:03:02;;;;;;;2.15;1.10;;;;;;;2.59;67.18;101486.81;5033076;28;20046;-72
2022/11/23 00:05:30;;;;;;;2.75;1.17;;;;;;;2.56;67.60;101490.19;5034778;28;20052;-72
2022/11/23 00:07:57;;;;;;;1.75;1.00;;;;;;;2.54;68.23;101481.53;5034424;28;20048;-73
2022/11/23 00:10:24;;;;;;;2.55;0.70;;;;;;;2.54;68.23;101484.13;5032702;28;20056;-72
2022/11/23 00:12:51;;;;;;;2.15;0.50;;;;;;;2.52;67.52;101483.19;5034223;28;20176;-73
2022/11/23 00:15:18;;;;;;;0.90;0.60;;;;;;;2.55;68.58;101482.41;5033428;28;21264;-71
2022/11/23 00:17:47;;;;;;;1.40;0.75;;;;;;;2.55;68.37;101482.41;5037330;28;20049;-72
2022/11/23 00:20:14;;;;;;;1.95;0.73;;;;;;;2.55;68.40;101488.44;5033630;28;20049;-72
2022/11/23 00:22:41;;;;;;;1.25;0.73;;;;;;;2.56;68.49;101486.72;5036782;28;20461;-73
2022/11/23 00:25:08;;;;;;;1.42;0.60;;;;;;;2.56;68.16;101481.56;5037289;28;20127;-72
2022/11/23 00:27:35;;;;;;;2.65;0.75;;;;;;;2.57;67.78;101488.50;5038227;28;20041;-72
2022/11/23 00:30:02;;;;;;;2.13;0.63;;;;;;;2.55;67.30;101479.84;5034196;28;20052;-72
2022/11/23 00:32:29;;;;;;;0.85;0.50;;;;;;;2.56;67.68;101478.97;5029052;28;20067;-72
2022/11/23 00:34:57;;;;;;;1.63;0.63;;;;;;;2.51;68.00;101475.44;5032078;28;20044;-72
2022/11/23 00:37:24;;;;;;;1.55;0.80;;;;;;;2.55;67.24;101483.28;5030518;28;20055;-72
2022/11/23 00:39:51;;;;;;;0.88;0.43;;;;;;;2.56;67.41;101485.03;5033831;28;20654;-72
2022/11/23 00:42:18;;;;;;;3.50;0.70;;;;;;;2.56;67.92;101481.56;5033937;28;21041;-72
2022/11/23 00:44:45;;;;;;;1.02;0.60;;;;;;;2.57;67.66;101476.47;5029289;28;20084;-71
2022/11/23 00:47:12;;;;;;;1.67;0.40;;;;;;;2.58;67.37;101474.75;5034501;28;20037;-71
2022/11/23 00:49:39;;;;;;;0.98;0.40;;;;;;;2.58;67.99;101477.31;5028066;28;20067;-72
2022/11/23 00:52:07;;;;;;;2.00;0.60;;;;;;;2.58;67.77;101469.59;5030662;28;20052;-72
2022/11/23 00:54:34;;;;;;;0.88;0.40;;;;;;;2.58;68.33;101472.16;5033508;28;20052;-72
2022/11/23 00:57:01;;;;;;;1.23;0.60;;;;;;;2.58;68.13;101465.31;5030001;28;20060;-71
2022/11/23 00:59:28;;;;;;;0.80;0.60;;;;;;;2.57;67.51;101468.72;5034839;28;20056;-71
2022/11/23 01:01:55;;;;;;;2.75;0.50;;;;;;;2.57;67.84;101466.16;5032876;28;20136;-72
2022/11/23 01:04:22;;;;;;;0.98;0.50;;;;;;;2.55;67.49;101451.47;5034112;28;20043;-71
2022/11/23 01:06:49;;;;;;;1.25;0.60;;;;;;;2.51;67.21;101454.81;5029927;28;20056;-71
2022/11/23 01:09:20;;;;;;;0.50;0.40;;;;;;;2.52;67.87;101456.53;5031081;28;20049;-72
2022/11/23 01:11:47;;;;;;;2.35;0.50;;;;;;;2.52;67.98;101456.53;5031528;28;20049;-72
2022/11/23 01:14:14;;;;;;;4.05;0.57;;;;;;;2.51;67.99;101454.81;5030294;28;20619;-72
2022/11/23 01:16:41;;;;;;;1.95;0.60;;;;;;;2.49;67.72;101449.59;5031963;28;20083;-72
2022/11/23 01:19:11;;;;;;;1.02;0.95;;;;;;;2.50;67.72;101450.47;5034378;28;20102;-72
2022/11/23 01:21:39;;;;;;;1.17;0.40;;;;;;;2.48;68.08;101443.56;5032405;28;20052;-72
2022/11/23 01:24:07;;;;;;;1.05;0.45;;;;;;;2.45;67.68;101445.22;5035840;28;20053;-73
2022/11/23 01:26:35;;;;;;;3.10;0.50;;;;;;;2.44;67.70;101439.16;5035902;28;20052;-72
2022/11/23 01:29:02;;;;;;;0.50;0.40;;;;;;;2.43;67.74;101441.72;5034369;28;20096;-75
2022/11/23 01:31:29;;;;;;;1.27;0.50;;;;;;;2.44;67.74;101448.59;5036771;28;20045;-72
2022/11/23 01:33:58;;;;;;;0.80;0.32;;;;;;;2.43;67.85;101450.31;5031894;28;20052;-72
2022/11/23 01:36:26;;;;;;;0.85;0.40;;;;;;;2.40;68.13;101442.50;5037446;28;20041;-72
2022/11/23 01:38:53;;;;;;;0.80;0.30;;;;;;;2.41;67.78;101444.25;5032680;28;20076;-74
2022/11/23 01:41:22;;;;;;;0.98;0.40;;;;;;;2.40;68.38;101439.06;5031978;28;20045;-72
2022/11/23 01:43:51;;;;;;;0.70;0.40;;;;;;;2.40;68.19;101447.66;5033299;28;20052;-72
2022/11/23 01:46:18;;;;;;;0.57;0.40;;;;;;;2.41;68.11;101446.81;5034117;28;20049;-72
2022/11/23 01:48:49;;;;;;;1.27;0.47;;;;;;;2.39;68.39;101445.94;5033223;28;20128;-72
2022/11/23 01:51:18;;;;;;;1.98;0.77;;;;;;;2.39;67.66;101445.94;5036946;28;20493;-72
2022/11/23 01:53:47;;;;;;;2.05;0.30;;;;;;;2.22;68.10;101418.81;5034105;28;20769;-74
2022/11/23 01:56:18;;;;;;;1.13;0.30;;;;;;;2.42;68.33;101455.41;5035635;28;20080;-73
2022/11/23 01:58:48;;;;;;;0.60;0.30;;;;;;;2.41;67.81;101448.53;5030029;28;20086;-72
2022/11/23 02:01:16;;;;;;;0.80;0.20;;;;;;;2.43;68.26;101452.91;5029501;28;20045;-72
2022/11/23 02:03:44;;;;;;;0.90;0.30;;;;;;;2.42;68.10;101453.75;5036062;28;20049;-72
2022/11/23 02:06:15;;;;;;;0.50;0.45;;;;;;;2.42;67.64;101456.31;5028823;28;20047;-72
2022/11/23 02:08:42;;;;;;;0.60;0.30;;;;;;;2.44;67.49;101449.47;5035581;28;20465;-72
2022/11/23 02:11:10;;;;;;;1.30;0.30;;;;;;;2.45;67.23;101448.66;5031929;28;20052;-72
2022/11/23 02:13:37;;;;;;;0.38;0.38;;;;;;;2.46;66.96;101447.81;5041177;28;20041;-72
2022/11/23 02:16:05;;;;;;;1.25;0.38;;;;;;;2.40;67.37;101429.63;5036272;28;20049;-72
2022/11/23 02:18:37;;;;;;;0.77;0.38;;;;;;;2.47;66.84;101438.38;5035992;28;20037;-72
2022/11/23 02:21:05;;;;;;;0.85;0.32;;;;;;;2.48;67.13;101440.13;5042013;28;20053;-72
2022/11/23 02:23:41;;;;;;;0.65;0.25;;;;;;;2.48;66.93;101432.41;5041132;28;20060;-71
2022/11/23 02:26:14;;;;;;;0.60;0.38;;;;;;;2.47;66.86;101430.63;5035552;28;20492;-72
2022/11/23 02:28:45;;;;;;;2.55;0.30;;;;;;;2.45;67.05;101429.75;5035497;28;20053;-72
2022/11/23 02:31:12;;;;;;;1.05;0.30;;;;;;;2.52;66.99;101439.34;5033965;28;20045;-72
2022/11/23 02:33:39;;;;;;;2.22;0.32;;;;;;;2.51;67.15;101429.03;5035967;28;20045;-72
2022/11/23 02:36:29;;;;;;;0.73;0.25;;;;;;;2.56;67.19;101435.16;5040075;28;20131;-72
2022/11/23 02:38:58;;;;;;;1.15;0.30;;;;;;;2.55;66.35;101420.50;5037716;28;20055;-71
2022/11/23 02:41:26;;;;;;;0.77;0.40;;;;;;;2.58;66.36;101420.59;5039460;28;20052;-72
2022/11/23 02:43:56;;;;;;;0.38;0.28;;;;;;;2.60;66.80;101418.94;5037736;28;20045;-72
2022/11/23 02:46:23;;;;;;;0.50;0.30;;;;;;;2.60;66.50;101408.59;5041161;28;20060;-72
2022/11/23 02:48:50;;;;;;;0.50;0.30;;;;;;;2.62;66.40;101412.97;5041363;28;20124;-72
2022/11/23 02:51:17;;;;;;;0.95;0.32;;;;;;;2.62;65.99;101417.28;5037647;28;20073;-72
2022/11/23 02:53:44;;;;;;;1.02;0.30;;;;;;;2.62;66.22;101418.13;5039881;28;20073;-71
2022/11/23 02:56:11;;;;;;;0.50;0.30;;;;;;;2.63;65.43;101413.84;5039643;28;20123;-72
2022/11/23 02:58:39;;;;;;;0.63;0.30;;;;;;;2.64;65.96;101420.72;5038253;28;20469;-72
2022/11/23 03:01:06;;;;;;;0.63;0.30;;;;;;;2.62;65.44;101414.69;5038466;28;20049;-72
2022/11/23 03:03:33;;;;;;;2.15;0.30;;;;;;;2.65;65.69;101412.19;5033968;28;20050;-72
2022/11/23 03:06:00;;;;;;;2.15;0.30;;;;;;;2.66;65.23;101408.75;5035936;28;20652;-71
2022/11/23 03:08:27;;;;;;;0.60;0.30;;;;;;;2.66;65.33;101408.75;5038311;28;20056;-72
2022/11/23 03:10:54;;;;;;;0.45;0.40;;;;;;;2.67;65.29;101405.31;5036991;28;20737;-72
2022/11/23 03:13:21;;;;;;;2.35;0.45;;;;;;;2.68;65.29;101412.25;5040071;28;20526;-72
2022/11/23 03:15:49;;;;;;;0.30;0.20;;;;;;;2.69;65.79;101408.81;5040923;28;20056;-72
2022/11/23 03:18:16;;;;;;;0.40;0.20;;;;;;;2.69;65.48;101417.44;5039821;28;20048;-72
2022/11/23 03:20:43;;;;;;;0.38;0.28;;;;;;;2.71;65.87;101409.75;5038704;28;20041;-72
2022/11/23 03:23:10;;;;;;;0.57;0.30;;;;;;;2.72;65.57;101408.03;5033980;28;20498;-72
2022/11/23 03:25:37;;;;;;;0.57;0.20;;;;;;;2.73;65.30;101412.34;5042042;28;20608;-77
2022/11/23 03:28:04;;;;;;;0.70;0.40;;;;;;;2.72;65.28;101408.91;5046758;28;20045;-77
2022/11/23 03:30:31;;;;;;;1.50;0.40;;;;;;;2.73;65.58;101405.47;5043626;28;20790;-77
2022/11/23 03:32:59;;;;;;;0.40;0.30;;;;;;;2.47;65.55;101361.00;5041365;28;20045;-77
2022/11/23 03:35:26;;;;;;;1.25;0.38;;;;;;;2.73;66.17;101405.47;5038856;28;20045;-77
2022/11/23 03:37:53;;;;;;;1.00;0.45;;;;;;;2.74;64.52;101404.66;5037753;28;20048;-77
2022/11/23 03:40:20;;;;;;;0.38;0.28;;;;;;;2.74;64.42;101396.03;5044995;28;20449;-77
2022/11/23 03:42:47;;;;;;;0.63;0.45;;;;;;;2.74;64.46;101396.91;5043746;28;20045;-77
2022/11/23 03:45:14;;;;;;;0.38;0.20;;;;;;;2.75;65.02;101403.81;5037723;28;20056;-77
2022/11/23 03:47:40;;;;;;;2.30;0.30;;;;;;;2.76;64.44;101407.25;5043146;28;20047;-77
2022/11/23 03:50:10;;;;;;;0.57;0.50;;;;;;;2.77;65.18;101412.47;5041044;28;20053;-78
2022/11/23 03:52:37;;;;;;;0.60;0.20;;;;;;;2.74;64.85;101396.91;5039081;28;20064;-77
2022/11/23 03:55:04;;;;;;;0.55;0.30;;;;;;;2.79;64.65;101404.75;5041650;28;20053;-77
2022/11/23 03:57:31;;;;;;;1.05;0.30;;;;;;;2.79;64.45;101412.47;5041937;28;20818;-77
2022/11/23 03:59:58;;;;;;;2.38;0.50;;;;;;;2.70;64.62;101389.91;5041721;28;20041;-77
2022/11/23 04:02:25;;;;;;;0.70;0.35;;;;;;;2.78;64.67;101392.69;5041978;28;20053;-77
2022/11/23 04:04:52;;;;;;;0.28;0.20;;;;;;;2.73;64.79;101387.41;5046851;28;20059;-77
2022/11/23 04:07:20;;;;;;;1.05;0.63;;;;;;;2.78;64.72;101398.72;5041791;28;20120;-78
2022/11/23 04:09:47;;;;;;;0.50;0.40;;;;;;;2.71;64.39;101376.22;5045411;28;21475;-77
2022/11/23 04:12:14;;;;;;;0.68;0.30;;;;;;;2.79;65.12;101390.16;5044289;28;20053;-77
2022/11/23 04:14:41;;;;;;;2.45;0.30;;;;;;;2.81;64.54;101396.19;5047424;28;20040;-77
2022/11/23 04:17:08;;;;;;;0.45;0.30;;;;;;;2.82;65.30;101394.53;5042550;28;20047;-78
2022/11/23 04:19:35;;;;;;;0.57;0.30;;;;;;;2.83;64.58;101401.41;5041416;28;20060;-78
2022/11/23 04:22:02;;;;;;;1.52;0.30;;;;;;;2.83;64.89;101404.84;5047682;28;20060;-78
2022/11/23 04:24:30;;;;;;;2.58;0.82;;;;;;;2.84;65.05;101406.59;5043078;28;20045;-77
2022/11/23 04:26:57;;;;;;;0.93;0.45;;;;;;;2.81;64.63;101395.34;5043711;28;20041;-77
2022/11/23 04:29:24;;;;;;;0.98;0.30;;;;;;;2.76;64.34;101377.19;5054006;28;20398;-78
2022/11/23 04:31:51;;;;;;;0.40;0.30;;;;;;;2.87;65.16;101398.91;5048087;28;20049;-78
2022/11/23 04:34:18;;;;;;;2.35;0.30;;;;;;;2.88;64.92;101399.81;5044799;28;20048;-77
2022/11/23 04:36:45;;;;;;;2.50;0.20;;;;;;;2.80;65.43;101386.72;5039662;28;20056;-77
2022/11/23 04:39:12;;;;;;;0.38;0.30;;;;;;;2.87;64.98;101383.44;5043345;28;20037;-77
2022/11/23 04:41:40;;;;;;;0.52;0.30;;;;;;;2.88;64.78;101385.19;5047530;28;20457;-77
2022/11/23 04:44:07;;;;;;;0.73;0.40;;;;;;;2.88;65.45;101372.31;5049137;28;20056;-78
2022/11/23 04:46:34;;;;;;;1.95;0.43;;;;;;;2.88;64.95;101374.88;5044799;28;20060;-77
2022/11/23 04:49:01;;;;;;;3.47;0.40;;;;;;;2.86;65.43;101381.72;5048876;28;20489;-77
2022/11/23 04:51:28;;;;;;;0.60;0.30;;;;;;;2.89;64.59;101381.78;5039236;28;20479;-77
2022/11/23 04:53:55;;;;;;;3.63;0.32;;;;;;;2.89;65.63;101379.19;5044140;28;20490;-77
2022/11/23 04:56:22;;;;;;;0.63;0.40;;;;;;;2.76;65.09;101356.56;5041957;28;20053;-77
2022/11/23 04:58:50;;;;;;;0.43;0.30;;;;;;;2.87;65.65;101369.66;5045870;28;20045;-77
2022/11/23 05:01:17;;;;;;;0.90;0.30;;;;;;;2.91;65.18;101377.53;5044789;28;20056;-77
2022/11/23 05:03:44;;;;;;;0.70;0.40;;;;;;;2.87;65.59;101361.94;5046890;28;20590;-78
2022/11/23 05:06:11;;;;;;;3.08;0.30;;;;;;;2.91;64.89;101371.50;5040297;28;20052;-77
2022/11/23 05:08:38;;;;;;;0.60;0.28;;;;;;;2.88;65.30;101366.28;5043784;28;20076;-77
2022/11/23 05:11:05;;;;;;;1.00;0.40;;;;;;;2.90;65.47;101360.31;5044931;28;21343;-77
2022/11/23 05:13:32;;;;;;;0.85;0.50;;;;;;;2.87;65.55;101351.59;5041479;28;20087;-78
2022/11/23 05:16:00;;;;;;;2.05;0.43;;;;;;;2.91;65.30;101363.75;5038553;28;20049;-81
2022/11/23 05:18:27;;;;;;;1.92;0.40;;;;;;;2.85;65.30;101343.84;5042222;28;20045;-77
2022/11/23 05:20:54;;;;;;;1.08;0.63;;;;;;;2.88;65.56;101353.38;5043878;28;20052;-77
2022/11/23 05:23:21;;;;;;;1.55;0.40;;;;;;;2.93;66.25;101352.63;5044525;28;20533;-78
2022/11/23 05:25:48;;;;;;;0.75;0.38;;;;;;;2.75;65.72;101322.97;5042254;28;20045;-78
2022/11/23 05:28:17;;;;;;;0.73;0.45;;;;;;;2.91;66.67;101345.69;5042211;28;20174;-78
2022/11/23 05:30:45;;;;;;;0.90;0.30;;;;;;;2.93;66.19;101355.22;5044120;28;20126;-77
2022/11/23 05:33:13;;;;;;;0.63;0.47;;;;;;;2.93;66.16;101351.72;5036835;28;20052;-78
2022/11/23 05:35:40;;;;;;;0.65;0.45;;;;;;;2.92;66.29;101356.03;5044551;28;20045;-78
2022/11/23 05:38:07;;;;;;;0.45;0.30;;;;;;;2.93;67.12;101354.31;5040624;28;21584;-86
2022/11/23 05:40:34;;;;;;;0.57;0.30;;;;;;;2.92;66.75;101358.63;5038652;28;20246;-84
2022/11/23 05:43:01;;;;;;;2.45;0.43;;;;;;;2.95;66.65;101367.28;5042583;28;20552;-78
2022/11/23 05:45:28;;;;;;;2.22;0.40;;;;;;;2.95;67.26;101375.00;5043108;28;20063;-77
2022/11/23 05:47:57;;;;;;;2.45;0.45;;;;;;;2.92;67.15;101379.25;5045953;28;20136;-78
2022/11/23 05:50:27;;;;;;;1.33;0.40;;;;;;;2.96;67.36;101381.91;5043630;28;20064;-77
2022/11/23 05:52:56;;;;;;;0.43;0.30;;;;;;;2.95;67.38;101385.34;5048863;28;20107;-78
2022/11/23 05:55:23;;;;;;;1.92;0.47;;;;;;;2.95;67.40;101388.78;5043015;28;20056;-77
2022/11/23 05:57:50;;;;;;;0.50;0.50;;;;;;;2.96;67.33;101381.91;5044897;28;20048;-85
2022/11/23 06:00:18;;;;;;;3.63;0.50;;;;;;;2.95;67.82;101383.63;5045350;28;20487;-82
2022/11/23 06:02:45;;;;;;;1.25;0.40;;;;;;;2.98;68.13;101390.56;5043767;28;20139;-83
2022/11/23 06:05:12;;;;;;;3.90;0.80;;;;;;;2.74;68.11;101360.78;5042175;28;20088;-82
2022/11/23 06:07:41;;;;;;;0.88;0.40;;;;;;;2.68;67.97;101355.50;5042867;28;20056;-82
2022/11/23 06:10:08;;;;;;;2.75;0.63;;;;;;;2.96;67.92;101400.88;5047564;28;20505;-92
2022/11/23 06:12:35;;;;;;;2.47;0.57;;;;;;;2.96;68.40;101408.59;5049675;28;20053;-88
2022/11/23 06:15:02;;;;;;;1.20;0.90;;;;;;;2.93;68.28;101413.66;5050465;28;20071;-87
2022/11/23 06:17:29;;;;;;;2.72;0.65;;;;;;;2.82;68.81;101402.25;5045553;28;20413;-88
2022/11/23 06:19:56;;;;;;;1.25;0.60;;;;;;;2.85;68.79;101405.78;5044348;28;20081;-88
2022/11/23 06:22:22;;;;;;;1.23;0.68;;;;;;;2.89;68.50;101417.91;5053781;28;20121;-88
2022/11/23 06:24:51;;;;;;;3.83;0.65;;;;;;;2.86;69.28;101402.34;5053926;28;20446;-87
2022/11/23 06:27:18;;;;;;;2.60;0.90;;;;;;;2.87;69.29;101404.06;5047999;28;20077;-76
2022/11/23 06:29:45;;;;;;;2.05;0.85;;;;;;;2.88;69.31;101395.53;5051242;28;20041;-84
2022/11/23 06:32:12;;;;;;;0.85;0.65;;;;;;;2.84;69.41;101392.81;5046858;28;20485;-83
2022/11/23 06:34:39;;;;;;;0.90;0.52;;;;;;;2.74;69.39;101375.41;5048234;28;20132;-83
2022/11/23 06:37:06;;;;;;;2.55;0.68;;;;;;;2.87;69.07;101398.06;5049981;28;20041;-83
2022/11/23 06:39:33;;;;;;;3.42;0.70;;;;;;;2.86;69.37;101399.75;5043390;28;20049;-83
2022/11/23 06:42:02;;;;;;;3.08;0.68;;;;;;;2.85;69.77;101399.75;5043373;28;20103;-85
2022/11/23 06:44:29;;;;;;;2.72;0.75;;;;;;;2.67;69.62;101374.38;5048786;28;20056;-85
2022/11/23 06:46:56;;;;;;;2.30;0.70;;;;;;;2.87;69.37;101414.41;5048693;28;20571;-83
2022/11/23 06:49:24;;;;;;;2.45;0.65;;;;;;;2.88;69.60;101405.84;5050131;28;20417;-87
2022/11/23 06:51:51;;;;;;;2.15;0.75;;;;;;;2.89;69.74;101417.91;5042289;28;20940;-88
2022/11/23 06:54:18;;;;;;;1.80;0.73;;;;;;;2.91;69.39;101426.56;5041690;28;20049;-87
2022/11/23 06:56:45;;;;;;;1.75;1.17;;;;;;;2.91;69.49;101417.94;5048763;28;20084;-87
2022/11/23 06:59:14;;;;;;;1.25;0.60;;;;;;;2.94;69.71;101420.59;5047273;28;20103;-89
2022/11/23 07:01:41;;;;;;;1.20;0.70;;;;;;;2.95;69.53;101422.31;5052502;28;20049;-88
2022/11/23 07:04:08;;;;;;;1.10;0.68;;;;;;;2.74;69.84;101394.34;5046562;28;20053;-89
2022/11/23 07:06:38;;;;;;;1.10;0.70;;;;;;;2.91;69.52;101410.19;5048778;28;20049;-88
2022/11/23 07:09:05;;;;;;;0.85;0.60;;;;;;;2.97;69.97;101419.81;5046530;28;20091;-86
2022/11/23 07:11:32;;;;;;;1.65;0.65;;;;;;;2.78;70.22;101388.41;5053915;28;20160;-88
2022/11/23 07:13:59;;;;;;;1.98;0.80;;;;;;;2.93;69.72;101422.31;5045207;28;20045;-88
2022/11/23 07:16:28;;;;;;;1.25;0.70;;;;;;;2.97;70.23;101419.81;5052791;28;20045;-87
2022/11/23 07:18:55;;;;;;;1.15;0.70;;;;;;;2.84;69.94;101401.44;5051653;28;20186;-86
2022/11/23 07:21:22;;;;;;;2.58;1.02;;;;;;;2.63;70.38;101367.41;5051994;28;20167;-87
2022/11/23 07:23:49;;;;;;;1.23;0.90;;;;;;;2.92;69.91;101417.97;5054328;28;21387;-89
2022/11/23 07:26:16;;;;;;;1.45;0.70;;;;;;;2.89;69.77;101410.16;5047481;28;20049;-88
2022/11/23 07:28:42;;;;;;;1.13;0.90;;;;;;;2.83;69.69;101397.13;5049706;28;20049;-87
2022/11/23 07:31:10;;;;;;;4.97;1.55;;;;;;;2.80;70.00;101394.47;5049889;28;20049;-87
2022/11/23 07:33:38;;;;;;;2.67;1.60;;;;;;;2.72;69.83;101374.50;5048633;28;20176;-87
2022/11/23 07:36:06;;;;;;;2.65;1.42;;;;;;;2.73;69.73;101384.81;5052759;28;20057;-86
2022/11/23 07:38:33;;;;;;;3.47;1.52;;;;;;;2.79;70.54;101400.47;5049298;28;20088;-89
2022/11/23 07:41:02;;;;;;;3.42;1.15;;;;;;;2.78;70.27;101398.72;5047854;28;20889;-88
2022/11/23 07:43:29;;;;;;;2.97;1.23;;;;;;;2.71;70.58;101389.09;5047324;28;20477;-88
2022/11/23 07:45:56;;;;;;;3.15;1.60;;;;;;;2.76;70.19;101390.09;5047972;28;20051;-86
2022/11/23 07:48:24;;;;;;;3.63;1.27;;;;;;;2.79;70.12;101408.22;5047372;28;20110;-87
2022/11/23 07:50:54;;;;;;;2.40;1.05;;;;;;;2.75;69.70;101398.63;5046815;28;20052;-86
2022/11/23 07:53:22;;;;;;;1.75;1.10;;;;;;;2.67;70.42;101389.84;5047099;28;20115;-86
2022/11/23 07:55:49;;;;;;;4.68;1.23;;;;;;;2.80;70.10;101404.78;5048263;28;20052;-88
2022/11/23 07:58:17;;;;;;;5.78;1.65;;;;;;;2.79;70.39;101415.06;5047106;28;20053;-85
2022/11/23 08:00:44;;;;;;;7.60;1.45;;;;;;;2.77;70.56;101412.47;5048669;28;20055;-86
2022/11/23 08:03:14;;;;;;;4.15;1.25;;;;;;;2.70;70.78;101411.44;5047011;28;20585;-86
2022/11/23 08:05:41;;;;;;;4.10;1.27;;;;;;;2.72;71.07;101419.22;5047741;28;20084;-86
2022/11/23 08:08:10;;;;;;;8.63;3.65;;;;;;;2.68;71.35;101415.69;5047140;28;20056;-87
2022/11/23 08:10:37;;;;;;;3.72;1.52;;;;;;;2.65;71.27;101412.19;5046191;28;20041;-86
2022/11/23 08:13:06;;;;;;;2.15;1.35;;;;;;;2.64;71.55;101413.00;5047066;28;20041;-86
2022/11/23 08:15:34;;;;;;;1.77;1.60;;;;;;;2.60;71.99;101413.78;5046374;28;20056;-86
2022/11/23 08:18:02;;;;;;;3.10;1.45;;;;;;;2.48;71.95;101399.75;5046922;28;20055;-87
2022/11/23 08:20:31;;;;;;;1.88;1.20;;;;;;;2.51;71.40;101403.22;5046780;28;20045;-86
2022/11/23 08:22:58;;;;;;;2.45;1.20;;;;;;;2.59;72.11;101422.31;5045807;28;20417;-86
2022/11/23 08:25:28;;;;;;;2.10;1.23;;;;;;;2.55;71.78;101420.50;5047735;28;20413;-87
2022/11/23 08:27:56;;;;;;;2.80;1.55;;;;;;;2.43;71.97;101406.47;5045323;28;20091;-87
2022/11/23 08:30:23;;;;;;;2.67;1.38;;;;;;;2.56;71.87;101424.81;5046169;28;20079;-85
2022/11/23 08:32:50;;;;;;;1.35;1.00;;;;;;;2.54;71.79;101419.66;5045972;28;20711;-87
2022/11/23 08:35:16;;;;;;;3.67;1.60;;;;;;;2.51;72.57;101413.56;5046186;28;20402;-87
2022/11/23 08:37:43;;;;;;;1.73;1.05;;;;;;;2.43;72.15;101411.63;5046709;28;20052;-88
2022/11/23 08:40:11;;;;;;;2.10;1.25;;;;;;;2.33;71.87;101389.03;5045551;28;20053;-87
2022/11/23 08:42:40;;;;;;;3.55;1.17;;;;;;;2.54;72.13;101418.78;5045780;28;20511;-86
2022/11/23 08:45:08;;;;;;;2.47;0.98;;;;;;;2.59;72.43;101430.94;5045541;28;20048;-85
2022/11/23 08:47:35;;;;;;;2.97;1.30;;;;;;;2.59;72.06;101422.31;5046394;28;20413;-87
2022/11/23 08:50:02;;;;;;;6.85;1.23;;;;;;;2.60;71.67;101429.25;5046381;28;20056;-87
2022/11/23 08:52:29;;;;;;;2.78;1.27;;;;;;;2.58;72.14;101430.91;5046167;28;20692;-86
2022/11/23 08:54:56;;;;;;;1.83;1.30;;;;;;;2.48;72.56;101415.22;5045552;28;20056;-86
2022/11/23 08:57:23;;;;;;;3.05;1.17;;;;;;;2.61;72.24;101420.66;5046069;28;20053;-87
2022/11/23 08:59:51;;;;;;;2.33;1.10;;;;;;;2.51;72.12;101405.81;5045851;28;20111;-86
2022/11/23 09:02:18;;;;;;;3.58;1.52;;;;;;;2.63;72.79;101419.88;5046085;28;20053;-84
2022/11/23 09:04:45;;;;;;;2.75;0.90;;;;;;;2.46;72.37;101390.22;5046447;28;20486;-86
2022/11/23 09:07:12;;;;;;;1.30;0.90;;;;;;;2.50;72.84;101398.88;5046290;28;20049;-88
2022/11/23 09:09:39;;;;;;;1.42;0.90;;;;;;;2.64;72.71;101424.19;5046871;28;20131;-86
2022/11/23 09:12:06;;;;;;;1.95;1.23;;;;;;;2.59;72.71;101412.91;5046790;28;20049;-87
2022/11/23 09:14:33;;;;;;;2.38;1.00;;;;;;;2.58;73.23;101410.28;5045524;28;20052;-87
2022/11/23 09:17:02;;;;;;;2.05;0.98;;;;;;;2.64;73.56;101411.28;5046342;28;20053;-86
2022/11/23 09:19:30;;;;;;;3.65;1.10;;;;;;;2.65;73.28;101419.91;5047353;28;20136;-88
2022/11/23 09:21:57;;;;;;;1.52;0.88;;;;;;;2.60;72.72;101409.47;5046861;28;20045;-80
2022/11/23 09:24:24;;;;;;;1.85;1.00;;;;;;;2.63;73.31;101413.84;5039393;28;20041;-74
2022/11/23 09:26:51;;;;;;;3.03;1.00;;;;;;;2.65;73.55;101427.66;5039195;28;20045;-74
2022/11/23 09:29:18;;;;;;;2.55;0.80;;;;;;;2.61;73.20;101413.78;5040590;28;20049;-74
2022/11/23 09:31:45;;;;;;;1.98;0.80;;;;;;;2.64;73.24;101426.75;5040127;28;20061;-76
2022/11/23 09:34:13;;;;;;;1.10;0.82;;;;;;;2.67;73.54;101425.97;5041462;28;20065;-75
2022/11/23 09:36:40;;;;;;;1.17;0.90;;;;;;;2.68;73.26;101430.31;5041341;28;21483;-76
2022/11/23 09:39:08;;;;;;;1.98;0.77;;;;;;;2.69;73.29;101429.47;5041083;28;20056;-73
2022/11/23 09:42:01;;;;;;;7.57;2.90;;;;;;;2.69;73.18;101430.31;5039875;28;20687;-72
2022/11/23 09:44:43;;;;;;;1.35;0.60;;;;;;;2.69;72.98;101420.00;5039189;28;20445;-72
2022/11/23 09:47:25;;;;;;;2.08;0.70;;;;;;;2.68;73.24;101423.44;5038786;28;20056;-73
2022/11/23 09:50:01;;;;;;;3.78;0.85;;;;;;;2.69;73.48;101424.31;5039358;28;20055;-73
2022/11/23 09:52:30;;;;;;;2.03;0.60;;;;;;;2.68;73.48;101423.44;5040291;28;20084;-73
2022/11/23 09:55:04;;;;;;;1.25;0.57;;;;;;;2.69;73.88;101413.97;5038742;28;20049;-74
2022/11/23 09:57:34;;;;;;;1.75;0.70;;;;;;;2.68;73.21;101407.09;5040027;28;20056;-72
2022/11/23 10:00:04;;;;;;;2.05;0.85;;;;;;;2.66;73.77;101404.47;5039048;28;20421;-74
2022/11/23 10:02:35;;;;;;;0.80;0.60;;;;;;;2.66;73.52;101408.75;5039702;28;20796;-73
2022/11/23 10:05:05;;;;;;;2.35;0.90;;;;;;;2.69;73.47;101413.97;5039472;28;20045;-73
2022/11/23 10:07:43;;;;;;;1.92;1.08;;;;;;;2.69;73.45;101408.81;5039685;28;20057;-73
2022/11/23 10:10:27;;;;;;;1.85;0.85;;;;;;;2.69;73.66;101407.09;5039845;28;20045;-74
2022/11/23 10:13:02;;;;;;;1.77;0.77;;;;;;;2.68;74.20;101407.09;5039918;28;20060;-74
2022/11/23 10:15:37;;;;;;;1.95;0.95;;;;;;;2.70;74.17;101411.44;5040042;28;20053;-75
2022/11/23 10:18:26;;;;;;;1.50;1.00;;;;;;;2.71;74.03;101417.47;5038713;28;20048;-74
2022/11/23 10:20:59;;;;;;;1.27;0.93;;;;;;;2.72;73.54;101416.63;5040421;28;20053;-73
2022/11/23 10:23:42;;;;;;;2.97;0.90;;;;;;;2.62;73.25;101407.81;5038934;28;20053;-75
2022/11/23 10:26:12;;;;;;;1.45;0.80;;;;;;;2.72;73.35;101411.47;5031122;28;20045;-74
2022/11/23 10:28:39;;;;;;;1.75;0.60;;;;;;;2.72;73.54;101418.34;5039862;28;20063;-75
2022/11/23 10:31:13;;;;;;;1.52;1.30;;;;;;;2.69;73.58;101403.66;5037546;28;20049;-73
2022/11/23 10:33:49;;;;;;;1.38;0.82;;;;;;;2.70;74.29;101395.06;5041390;28;20053;-74
2022/11/23 10:36:17;;;;;;;1.10;0.80;;;;;;;2.74;73.55;101406.38;5042589;28;20056;-73
2022/11/23 10:38:47;;;;;;;1.60;0.88;;;;;;;2.76;73.88;101407.25;5042364;28;20132;-74
2022/11/23 10:41:15;;;;;;;2.13;0.82;;;;;;;2.72;73.42;101384.81;5042540;28;20045;-74
2022/11/23 10:43:50;;;;;;;1.80;1.10;;;;;;;2.79;73.77;101400.47;5042597;28;20044;-72
2022/11/23 10:46:26;;;;;;;2.05;0.82;;;;;;;2.80;73.28;101398.75;5040820;28;20049;-71
2022/11/23 10:48:54;;;;;;;1.48;0.85;;;;;;;2.82;74.08;101405.72;5041790;28;20052;-71
2022/11/23 10:51:27;;;;;;;2.13;0.85;;;;;;;2.80;73.84;101388.44;5041105;28;20045;-71
2022/11/23 10:53:58;;;;;;;1.63;0.68;;;;;;;2.85;73.96;101404.91;5039213;28;20056;-71
2022/11/23 10:56:25;;;;;;;1.38;0.70;;;;;;;2.86;73.46;101404.94;5041662;28;20055;-72
2022/11/23 10:58:53;;;;;;;2.97;1.00;;;;;;;2.88;73.83;101399.81;5040430;28;20060;-71
2022/11/23 11:01:23;;;;;;;1.77;0.60;;;;;;;2.91;73.10;101402.47;5041888;28;20064;-71
2022/11/23 11:03:51;;;;;;;3.63;0.85;;;;;;;2.92;73.64;101404.19;5039137;28;20041;-75
2022/11/23 11:06:31;;;;;;;1.75;0.93;;;;;;;2.96;73.32;101397.38;5041512;28;20055;-73
2022/11/23 11:09:00;;;;;;;1.90;0.75;;;;;;;2.97;73.32;101401.72;5040753;28;20049;-73
2022/11/23 11:11:29;;;;;;;0.82;0.50;;;;;;;2.99;73.30;101397.44;5039748;28;20048;-72
2022/11/23 11:14:03;;;;;;;1.30;0.73;;;;;;;2.99;72.96;101393.19;5041607;28;20061;-73
2022/11/23 11:16:32;;;;;;;1.57;0.83;;;;;;;2.99;73.57;101388.03;5039214;28;21377;-71
2022/11/23 11:18:59;;;;;;;1.05;0.60;;;;;;;2.96;73.11;101382.81;5041308;28;20065;-72
2022/11/23 11:21:33;;;;;;;1.50;0.70;;;;;;;2.97;73.19;101386.25;5040367;28;20049;-72
2022/11/23 11:24:03;;;;;;;1.95;0.82;;;;;;;3.00;73.72;101399.22;5042023;28;20516;-71
2022/11/23 11:26:32;;;;;;;2.35;0.90;;;;;;;3.00;72.98;101392.34;5040091;28;20041;-73
2022/11/23 11:29:02;;;;;;;1.40;0.80;;;;;;;2.99;73.75;101398.34;5040323;28;20053;-72
2022/11/23 11:31:51;;;;;;;2.13;0.70;;;;;;;3.01;73.50;101395.78;5042029;28;20393;-73
2022/11/23 11:34:23;;;;;;;1.42;0.88;;;;;;;3.02;73.04;101390.69;5041791;28;20581;-73
2022/11/23 11:36:58;;;;;;;1.65;0.70;;;;;;;3.04;73.30;101395.84;5042586;28;20049;-72
2022/11/23 11:39:32;;;;;;;1.50;0.68;;;;;;;3.03;73.07;101399.28;5041397;28;20045;-72